Hector International Airport
KFAR : rendu visible

Aérodrome :











RETROUVEZ-NOUS SUR...

 
LOGIN :

S'inscrire | Disclaimer

   EN    FR    IT 

 









Légende :    VFR   VFR Marginal   IFR   IFR Intensif   IFR Très Intensif
Visi : 
Plafond : 
>= 8 km
>= 3000ft
5 à 8 km
1000 à 3000 ft
1500m à 5 km
500 à 1000 ft
800 à 1500m
200 à 500 ft
< 800m
< 200 ft
Symboles :   Orages  Brouillard  Fortes neiges  Fortes précipitations  Vent > 20 kt






- Altitude de l'aérodrome : 902 ft
- Code IATA : FAR


KFAR - Hector International

DERNIER METAR :
  • 191253Z 29011KT 10SM BKN020 OVC034 03/01 A2974 RMK AO2 SLP082 T00280011

METARs EXPIRÉS :
  • 191153Z 29011KT 10SM OVC024 03/01 A2972 RMK AO2 SLP074 70002 T00280011 10033 20006 53016
  • 191118Z 29008KT 10SM BKN025 OVC060 02/01 A2970 RMK AO2 T00170006
  • 191053Z 28008KT 10SM BKN060 01/01 A2970 RMK AO2 SLP067 T00110006

TAF KFAR
Valide du 19 à 12h jusqu'au 20 à 12h UTC


191128Z 1912/2012 30007KT P6SM BKN020
TEMPO 1912/1915 SCT020 BKN060
FM200200 00000KT P6SM BKN060
FM200700 00000KT P6SM OVC035
FM201000 VRB04KT P6SM OVC030



MET'MAP, la Météo Aéronautique d'un coup d'oeil ! - Copyright ORBIFLY Décembre 2007 - Disclaimer

ORBIFLY MET'MAP TEAM :

Programmation & Développement : Alexandra Zaïnal
Conception & Développement : Baudouin d'Aumeries
Co-Programmation & Développement : Marc-Olivier Méhu
Soutien technique & logistique : Manuel Goepfert

Contact : metmap@orbifly.com




SOURCES & CREDITS :

   NOAA       Earth
Advisory